NORTHEAST SUFFOLK  -  Rip Current Statement Rip Current Statement        NORTHERN NASSAU  -  Rip Current Statement Rip Current Statement        NORTHERN QUEENS  -  Rip Current Statement Rip Current Statement        NORTHWEST SUFFOLK  -  Rip Current Statement Rip Current Statement        SOUTHEAST SUFFOLK  -  Rip Current Statement Rip Current Statement        SOUTHERN NASSAU  -  Rip Current Statement Rip Current Statement        SOUTHERN QUEENS  -  Rip Current Statement Rip Current Statement        SOUTHWEST SUFFOLK  -  Rip Current Statement Rip Current Statement      

Active alerts

Northern Queens
  Details for Northern Queens Rip Current Statement
Southern Queens
  Details for Southern Queens Rip Current Statement
Northern Nassau
  Details for Northern Nassau Rip Current Statement
Southern Nassau
  Details for Southern Nassau Rip Current Statement
Northwest Suffolk
  Details for Northwest Suffolk Rip Current Statement
Southwest Suffolk
  Details for Southwest Suffolk Rip Current Statement
Northeast Suffolk
  Details for Northeast Suffolk Rip Current Statement
Southeast Suffolk
  Details for Southeast Suffolk Rip Current Statement


WXM80 ListenWXM80 Stop

You find our weather info also at:

UK Metoffice

WeatherCloud

Weather Underground

Northeastern Weather Network

AWEKAS

Citizen Weather Observer Program (CWOP)

HAMweather, WeatherForYou, PWS Weather


Weather Underground History page Text

Daily Summary for August 22, 2017 Units:  Metric    English   Both
« Previous Day
Next Day »
Daily Weekly Monthly Yearly Custom
  High: Low: Average:
Temperature: 33.6 °C 23.1 °C 26.9 °C
Dew Point: 26.5 °C 21.3 °C 23.6 °C
Humidity: 95 % 62 % 83 %
Wind Speed: 9.3 km/h 0 km/h 2.9 km/h
Wind Gust: 24.1 km/h - -
Wind:- - SSW
Pressure: 1017.2 hPa 1005.3 hPa -
Precipitation: 1.52 mm    
Historical Graphs
 
 
Tabular Data for August 22, 2017
Time Temperature Dew Point Pressure Wind Wind Speed Wind Gust Humidity Rainfall Rate (Hourly)
00:02 23.9 °C 21.8 °C 1016.8 hPa SW 1 km/h 3.7 km/h 88 % 0 mm
00:07 23.9 °C 21.8 °C 1017.2 hPa WSW 2.6 km/h 5.6 km/h 88 % 0 mm
00:12 23.9 °C 21.8 °C 1017.2 hPa Calm     88 % 0 mm
00:14 23.9 °C 21.8 °C 1017.2 hPa Calm   1.9 km/h 88 % 0 mm
00:19 23.8 °C 21.7 °C 1017.2 hPa SW 3.2 km/h 7.4 km/h 88 % 0 mm
00:24 23.8 °C 21.7 °C 1017.2 hPa SSW 1.1 km/h 3.7 km/h 88 % 0 mm
00:29 23.8 °C 21.7 °C 1016.8 hPa WSW 1 km/h 5.6 km/h 88 % 0 mm
00:34 23.8 °C 21.7 °C 1016.8 hPa WSW 1 km/h 3.7 km/h 88 % 0 mm
00:39 23.8 °C 21.7 °C 1016.8 hPa WSW 0.5 km/h 3.7 km/h 88 % 0 mm
00:44 23.7 °C 21.6 °C 1016.8 hPa WSW 1 km/h 3.7 km/h 88 % 0 mm
00:49 23.7 °C 21.6 °C 1016.8 hPa WSW 1.1 km/h 5.6 km/h 88 % 0 mm
00:54 23.7 °C 21.6 °C 1016.8 hPa WSW 2.9 km/h 5.6 km/h 88 % 0 mm
00:59 23.6 °C 21.5 °C 1016.8 hPa Calm   3.7 km/h 88 % 0 mm
01:04 23.6 °C 21.4 °C 1016.5 hPa SW 1.4 km/h 5.6 km/h 88 % 0 mm
01:09 23.6 °C 21.4 °C 1016.5 hPa Calm   1.9 km/h 88 % 0 mm
01:14 23.5 °C 21.4 °C 1016.5 hPa WSW 0.3 km/h 1.9 km/h 88 % 0 mm
01:20 23.5 °C 21.4 °C 1016.5 hPa WSW 2.1 km/h 2.1 km/h 88 % 0 mm
01:25 23.4 °C 21.3 °C 1016.5 hPa WSW 2.1 km/h 3.7 km/h 88 % 0 mm
01:30 23.4 °C 21.3 °C 1016.5 hPa SW 1 km/h 3.7 km/h 88 % 0 mm
01:35 23.4 °C 21.3 °C 1016.5 hPa SW 0.8 km/h 3.7 km/h 88 % 0 mm
01:40 23.4 °C 21.3 °C 1016.5 hPa SW 0.2 km/h 1.9 km/h 88 % 0 mm
01:45 23.4 °C 21.4 °C 1016.5 hPa Calm   1.6 km/h 89 % 0 mm
01:50 23.3 °C 21.4 °C 1016.1 hPa SW 2.1 km/h 5.6 km/h 89 % 0 mm
01:55 23.3 °C 21.4 °C 1016.1 hPa SSW 1.6 km/h 5.6 km/h 89 % 0 mm
02:00 23.3 °C 21.4 °C 1016.1 hPa SW 1.9 km/h 5.6 km/h 89 % 0 mm
02:05 23.3 °C 21.4 °C 1016.1 hPa SSW 1.8 km/h 5.6 km/h 89 % 0 mm
02:10 23.3 °C 21.4 °C 1016.1 hPa WSW 2.3 km/h 7.4 km/h 89 % 0 mm
02:15 23.3 °C 21.4 °C 1015.8 hPa SSW 3.9 km/h 5.6 km/h 89 % 0 mm
02:20 23.3 °C 21.4 °C 1015.8 hPa West 0.6 km/h 1.9 km/h 89 % 0 mm
02:25 23.3 °C 21.4 °C 1015.8 hPa West 0.3 km/h 3.7 km/h 89 % 0 mm
02:31 23.3 °C 21.6 °C 1015.8 hPa Calm   3.2 km/h 90 % 0 mm
02:36 23.3 °C 21.6 °C 1015.5 hPa Calm   1.6 km/h 90 % 0 mm
02:41 23.3 °C 21.6 °C 1015.5 hPa Calm   4.8 km/h 90 % 0 mm
02:46 23.3 °C 21.6 °C 1015.8 hPa West 1.6 km/h 4.8 km/h 90 % 0 mm
02:51 23.2 °C 21.5 °C 1015.8 hPa WSW 3.2 km/h 4.8 km/h 90 % 0 mm
02:56 23.2 °C 21.5 °C 1015.8 hPa SW 1.6 km/h 4.8 km/h 90 % 0 mm
03:01 23.2 °C 21.5 °C 1015.8 hPa SW 1.8 km/h 3.2 km/h 90 % 0 mm
03:06 23.2 °C 21.7 °C 1015.8 hPa SW 1.8 km/h 3.7 km/h 91 % 0 mm
03:11 23.2 °C 21.6 °C 1015.5 hPa Calm     91 % 0 mm
03:16 23.2 °C 21.6 °C 1015.5 hPa SW 1.1 km/h 3.7 km/h 91 % 0 mm
03:21 23.2 °C 21.6 °C 1015.5 hPa SW 1.4 km/h 3.7 km/h 91 % 0 mm
03:26 23.2 °C 21.6 °C 1015.5 hPa SSW 1.3 km/h 4.8 km/h 91 % 0 mm
03:31 23.2 °C 21.6 °C 1015.5 hPa SW 3.1 km/h 6.4 km/h 91 % 0 mm
03:36 23.2 °C 21.8 °C 1015.1 hPa SW 1.4 km/h 3.2 km/h 92 % 0 mm
03:41 23.2 °C 21.8 °C 1015.1 hPa SSW 0.6 km/h 3.7 km/h 92 % 0 mm
03:46 23.2 °C 21.8 °C 1015.1 hPa SW 1.9 km/h 3.2 km/h 92 % 0 mm
03:48 23.2 °C 21.8 °C 1015.1 hPa WSW 2.6 km/h 5.6 km/h 92 % 0 mm
03:53 23.2 °C 21.8 °C 1015.1 hPa SW 3.1 km/h 5.6 km/h 92 % 0 mm
03:58 23.2 °C 21.8 °C 1015.1 hPa SW 1 km/h 5.6 km/h 92 % 0 mm
04:03 23.1 °C 21.7 °C 1015.1 hPa SW 2.3 km/h 5.6 km/h 92 % 0 mm
04:08 23.1 °C 21.7 °C 1015.1 hPa SSW 4 km/h 5.6 km/h 92 % 0 mm
04:13 23.1 °C 21.9 °C 1015.1 hPa SW 1 km/h 3.7 km/h 93 % 0 mm
04:18 23.1 °C 21.9 °C 1014.8 hPa South 1.9 km/h 5.6 km/h 93 % 0 mm
04:23 23.1 °C 21.9 °C 1015.1 hPa West 0.5 km/h 5.6 km/h 93 % 0 mm
04:28 23.1 °C 21.9 °C 1014.8 hPa WSW 1.9 km/h 5.6 km/h 93 % 0 mm
04:33 23.1 °C 21.9 °C 1014.8 hPa Calm   1.9 km/h 93 % 0 mm
04:38 23.1 °C 21.9 °C 1014.8 hPa WSW 0.5 km/h 1.9 km/h 93 % 0 mm
04:43 23.1 °C 21.9 °C 1014.8 hPa West 0.6 km/h 1.9 km/h 93 % 0 mm
04:48 23.1 °C 21.9 °C 1014.8 hPa West 0.5 km/h 1.9 km/h 93 % 0 mm
04:53 23.1 °C 21.9 °C 1014.8 hPa Calm     93 % 0 mm
04:58 23.1 °C 22.1 °C 1014.8 hPa SW 0.8 km/h 3.2 km/h 94 % 0 mm
05:03 23.1 °C 22.1 °C 1014.8 hPa WSW 0.8 km/h 6.4 km/h 94 % 0 mm
05:08 23.1 °C 22.1 °C 1015.1 hPa WSW 1.8 km/h 5.6 km/h 94 % 0 mm
05:13 23.1 °C 22.1 °C 1015.1 hPa Calm   1.9 km/h 94 % 0 mm
05:18 23.1 °C 22.1 °C 1015.1 hPa WSW 0.3 km/h 1.9 km/h 94 % 0 mm
05:23 23.1 °C 22.1 °C 1014.8 hPa SW 1 km/h 4.8 km/h 94 % 0 mm
05:28 23.1 °C 22.1 °C 1014.8 hPa SW 0.5 km/h 3.7 km/h 94 % 0 mm
05:34 23.2 °C 22.2 °C 1014.8 hPa Calm   1.9 km/h 94 % 0 mm
05:39 23.1 °C 22.1 °C 1014.8 hPa WSW 0.6 km/h 3.7 km/h 94 % 0 mm
05:44 23.1 °C 22.1 °C 1014.8 hPa WSW 0.8 km/h 3.7 km/h 94 % 0 mm
05:49 23.1 °C 22.1 °C 1014.8 hPa SSW 2.1 km/h 5.6 km/h 94 % 0 mm
05:54 23.1 °C 22.1 °C 1014.8 hPa SSW 0.2 km/h 1.9 km/h 94 % 0 mm
05:59 23.1 °C 22.1 °C 1014.8 hPa Calm   1.6 km/h 94 % 0 mm
06:04 23.1 °C 22.1 °C 1014.8 hPa Calm     94 % 0 mm
06:09 23.1 °C 22.1 °C 1014.8 hPa Calm     94 % 0 mm
06:14 23.1 °C 22.1 °C 1014.8 hPa SW 0.5 km/h 3.7 km/h 94 % 0 mm
06:19 23.1 °C 22.1 °C 1014.8 hPa SW 1.3 km/h 5.6 km/h 94 % 0 mm
06:24 23.1 °C 22.1 °C 1014.8 hPa WSW 0.2 km/h 3.7 km/h 94 % 0 mm
06:29 23.1 °C 22.2 °C 1014.8 hPa WSW 0.2 km/h 1.9 km/h 95 % 0 mm
06:34 23.1 °C 22.3 °C 1014.8 hPa Calm     95 % 0 mm
06:39 23.1 °C 22.3 °C 1014.8 hPa Calm   1.6 km/h 95 % 0 mm
06:44 23.1 °C 22.3 °C 1015.1 hPa SW 2.1 km/h 4.8 km/h 95 % 0 mm
06:49 23.1 °C 22.3 °C 1015.1 hPa SW 1.6 km/h 1.9 km/h 95 % 0 mm
06:54 23.2 °C 22.3 °C 1014.8 hPa Calm   1.9 km/h 95 % 0 mm
06:59 23.2 °C 22.3 °C 1014.8 hPa SW 1.6 km/h 3.2 km/h 95 % 0 mm
07:04 23.2 °C 22.4 °C 1014.8 hPa SSW 4 km/h 4.8 km/h 95 % 0 mm
07:09 23.2 °C 22.4 °C 1014.8 hPa SSW 1.9 km/h 3.2 km/h 95 % 0 mm
07:14 23.3 °C 22.4 °C 1014.8 hPa Calm   3.7 km/h 95 % 0 mm
07:19 23.3 °C 22.5 °C 1014.8 hPa West 2.3 km/h 3.7 km/h 95 % 0 mm
07:24 23.3 °C 22.5 °C 1014.8 hPa SW 1 km/h 3.7 km/h 95 % 0 mm
07:29 23.4 °C 22.6 °C 1014.8 hPa SW 1.8 km/h 1.9 km/h 95 % 0 mm
07:34 23.4 °C 22.6 °C 1014.8 hPa SW 0.3 km/h   95 % 0 mm
07:40 23.5 °C 22.7 °C 1014.8 hPa SW 1.1 km/h 3.7 km/h 95 % 0 mm
07:45 23.6 °C 22.8 °C 1014.8 hPa SSW 2.7 km/h 5.6 km/h 95 % 0 mm
07:50 23.7 °C 22.8 °C 1014.4 hPa South 0.2 km/h 3.7 km/h 95 % 0 mm
07:55 23.8 °C 22.9 °C 1014.4 hPa Calm   1.9 km/h 95 % 0 mm
08:00 23.9 °C 23.1 °C 1014.4 hPa South 0.6 km/h 1.9 km/h 95 % 0 mm
08:05 23.9 °C 23.1 °C 1014.4 hPa SW 1.8 km/h 5.6 km/h 95 % 0 mm
08:10 24.1 °C 23.1 °C 1014.4 hPa SW 3.5 km/h 7.4 km/h 94 % 0 mm
08:15 24.2 °C 23.2 °C 1014.4 hPa SW 3.5 km/h 5.6 km/h 94 % 0 mm
08:20 24.3 °C 23.2 °C 1014.8 hPa SSW 2.3 km/h 11.1 km/h 94 % 0 mm
08:25 24.4 °C 23.3 °C 1014.4 hPa WSW 2.1 km/h 5.6 km/h 94 % 0 mm
08:30 24.5 °C 23.3 °C 1014.4 hPa WSW 2.4 km/h 8 km/h 93 % 0 mm
08:35 24.6 °C 23.4 °C 1014.4 hPa SSW 2.4 km/h 5.6 km/h 93 % 0 mm
08:40 24.7 °C 23.5 °C 1014.1 hPa SW 1.8 km/h 6.4 km/h 93 % 0 mm
08:45 24.8 °C 23.4 °C 1014.1 hPa SW 2.3 km/h 5.6 km/h 92 % 0 mm
08:50 25 °C 23.6 °C 1014.1 hPa SW 2.9 km/h 9.3 km/h 92 % 0 mm
08:56 25.2 °C 23.6 °C 1014.1 hPa SW 2.1 km/h 5.6 km/h 91 % 0 mm
09:01 25.3 °C 23.8 °C 1014.1 hPa WSW 5.8 km/h 9.3 km/h 91 % 0 mm
09:06 25.4 °C 23.7 °C 1013.8 hPa South 0.2 km/h 5.6 km/h 90 % 0 mm
09:11 25.6 °C 23.6 °C 1014.1 hPa WSW 1 km/h 1.9 km/h 89 % 0 mm
09:16 25.7 °C 23.8 °C 1014.1 hPa SW 0.8 km/h 3.7 km/h 89 % 0 mm
09:21 25.9 °C 23.7 °C 1014.1 hPa SSE 0.6 km/h 1.9 km/h 88 % 0 mm
09:26 26.1 °C 23.9 °C 1014.1 hPa SE 2.4 km/h 5.6 km/h 88 % 0 mm
09:31 26.2 °C 23.9 °C 1013.8 hPa West 5.1 km/h 9.3 km/h 87 % 0 mm
09:36 26.3 °C 24 °C 1013.8 hPa SW 1.3 km/h 5.6 km/h 87 % 0 mm
09:41 26.5 °C 23.9 °C 1013.8 hPa SW 2.6 km/h 5.6 km/h 86 % 0 mm
09:46 26.7 °C 24.2 °C 1013.8 hPa SSW 4.3 km/h 9.3 km/h 86 % 0 mm
09:51 26.9 °C 24.4 °C 1013.8 hPa SSW 0.6 km/h 3.7 km/h 86 % 0 mm
09:56 27.2 °C 24.3 °C 1013.8 hPa ESE 0.6 km/h 3.7 km/h 84 % 0 mm
10:01 27.6 °C 24.2 °C 1013.8 hPa SE 0.6 km/h 5.6 km/h 82 % 0 mm
10:06 27.8 °C 24.2 °C 1013.8 hPa SSE 2.7 km/h 7.4 km/h 81 % 0 mm
10:11 28 °C 24.4 °C 1013.8 hPa West 1.4 km/h 5.6 km/h 81 % 0 mm
10:16 28.1 °C 24.5 °C 1013.8 hPa South 1.9 km/h 5.6 km/h 81 % 0 mm
10:21 28.2 °C 24.4 °C 1013.4 hPa South 2.1 km/h 5.6 km/h 80 % 0 mm
10:26 28.3 °C 24.7 °C 1013.4 hPa WSW 0.2 km/h 3.2 km/h 81 % 0 mm
10:31 28.4 °C 24.6 °C 1013.4 hPa WSW 5.1 km/h 9.3 km/h 80 % 0 mm
10:36 28.5 °C 24.5 °C 1013.4 hPa SW 5.3 km/h 8 km/h 79 % 0 mm
10:41 28.7 °C 24.2 °C 1013.4 hPa SE 1 km/h 8 km/h 77 % 0 mm
10:46 28.9 °C 24.4 °C 1013.4 hPa South 1.9 km/h 5.6 km/h 77 % 0 mm
10:51 29.1 °C 24.6 °C 1013.4 hPa SW 1 km/h 5.6 km/h 77 % 0 mm
10:56 29.3 °C 24.8 °C 1013.4 hPa SW 2.1 km/h 5.6 km/h 77 % 0 mm
11:01 29.5 °C 24.6 °C 1013.4 hPa SSE 3.4 km/h 7.4 km/h 75 % 0 mm
11:06 29.8 °C 24.9 °C 1013.4 hPa WSW 4.5 km/h 6.4 km/h 75 % 0 mm
11:11 30.2 °C 25.4 °C 1013.1 hPa WSW 1.8 km/h 6.4 km/h 76 % 0 mm
11:16 30.4 °C 25 °C 1013.1 hPa WSW 1.6 km/h 7.4 km/h 73 % 0 mm
11:21 30.6 °C 25.2 °C 1013.1 hPa SSW 1.6 km/h 3.7 km/h 73 % 0 mm
11:26 30.8 °C 24.9 °C 1013.1 hPa SW 1.1 km/h 8 km/h 71 % 0 mm
11:31 31.1 °C 25.4 °C 1013.1 hPa South 4.8 km/h 11.1 km/h 72 % 0 mm
11:36 31.1 °C 24.9 °C 1013.1 hPa SSW 6 km/h 8 km/h 70 % 0 mm
11:41 31.2 °C 24.8 °C 1013.1 hPa SW 1.8 km/h 11.1 km/h 69 % 0 mm
11:46 31.2 °C 25.1 °C 1013.1 hPa SSW 4.7 km/h 11.1 km/h 70 % 0 mm
11:51 31.4 °C 25 °C 1012.8 hPa SW 4.5 km/h 9.3 km/h 69 % 0 mm
11:57 31.6 °C 25.7 °C 1012.8 hPa SSW 1 km/h 1.9 km/h 71 % 0 mm
12:02 31.7 °C 24.8 °C 1012.8 hPa SSW 3.7 km/h 7.4 km/h 67 % 0 mm
12:07 31.8 °C 24.9 °C 1012.8 hPa SW 8.2 km/h 20.4 km/h 67 % 0 mm
12:12 31.9 °C 25.2 °C 1012.8 hPa SSW 3.5 km/h 7.4 km/h 68 % 0 mm
12:17 31.9 °C 25 °C 1012.4 hPa SSE 2.4 km/h 7.4 km/h 67 % 0 mm
12:22 31.9 °C 25.1 °C 1012.4 hPa SW 1.1 km/h 3.7 km/h 67 % 0 mm
12:27 31.9 °C 25 °C 1012.1 hPa SE 3.2 km/h 7.4 km/h 67 % 0 mm
12:32 31.6 °C 24.5 °C 1012.1 hPa SE 1.8 km/h 5.6 km/h 66 % 0 mm
12:37 31.7 °C 25.3 °C 1012.1 hPa WSW 3.5 km/h 9.7 km/h 69 % 0 mm
12:42 31.9 °C 24.8 °C 1012.1 hPa WSW 4 km/h 9.3 km/h 66 % 0 mm
12:47 32.2 °C 25.3 °C 1012.1 hPa WSW 6.4 km/h 9.7 km/h 67 % 0 mm
12:52 32.3 °C 25.6 °C 1012.1 hPa SW 2.7 km/h 5.6 km/h 68 % 0 mm
12:57 32.5 °C 25.3 °C 1012.1 hPa WSW 7.2 km/h 12.9 km/h 66 % 0 mm
13:02 32.7 °C 25.2 °C 1011.7 hPa SSW 2.9 km/h 5.6 km/h 65 % 0 mm
13:07 32.8 °C 25.1 °C 1011.7 hPa SW 5.8 km/h 7.4 km/h 64 % 0 mm
13:12 33.1 °C 26.1 °C 1011.7 hPa WSW 0.5 km/h 1.9 km/h 67 % 0 mm
13:17 33.2 °C 25.8 °C 1011.7 hPa SW 0.2 km/h 3.7 km/h 65 % 0 mm
13:22 33.4 °C 25.7 °C 1011.4 hPa South 3.4 km/h 6.4 km/h 64 % 0 mm
13:27 33.5 °C 25.2 °C 1011.4 hPa SE 1.3 km/h 5.6 km/h 62 % 0 mm
13:32 33.6 °C 25.6 °C 1011.4 hPa South 1.9 km/h 5.6 km/h 63 % 0 mm
13:37 33.4 °C 25.4 °C 1011.4 hPa SSW 3.2 km/h 5.6 km/h 63 % 0 mm
13:42 33.2 °C 25.2 °C 1011.1 hPa SE 0.5 km/h 1.9 km/h 63 % 0 mm
13:47 33 °C 25.6 °C 1011.4 hPa SSW 2.3 km/h 6.4 km/h 65 % 0 mm
13:53 33 °C 25.8 °C 1011.1 hPa West 3.7 km/h 6.4 km/h 66 % 0 mm
13:58 33.1 °C 25.3 °C 1011.1 hPa SSE 4.7 km/h 11.1 km/h 64 % 0 mm
14:03 33.1 °C 26.1 °C 1011.1 hPa WSW 4 km/h 9.3 km/h 67 % 0 mm
14:08 33.2 °C 26.5 °C 1011.1 hPa SE 1.3 km/h 5.6 km/h 68 % 0 mm
14:13 33 °C 25.8 °C 1010.7 hPa SSW 6.9 km/h 14.8 km/h 66 % 0 mm
14:18 32.7 °C 25.8 °C 1010.7 hPa South 4.7 km/h 9.3 km/h 67 % 0 mm
14:28 32.3 °C 25.4 °C 1010.4 hPa South 7.7 km/h 18.5 km/h 67 % 0 mm
14:33 32.1 °C 25.2 °C 1010.4 hPa SSE 2.3 km/h 7.4 km/h 67 % 0 mm
14:38 31.9 °C 25.2 °C 1010.4 hPa South 1.4 km/h 13 km/h 68 % 0 mm
14:43 31.8 °C 25.4 °C 1010 hPa SSE 6.3 km/h 13 km/h 69 % 0 mm
14:48 31.7 °C 25.3 °C 1010.4 hPa SSE 7.6 km/h 16.7 km/h 69 % 0 mm
14:53 31.5 °C 25.4 °C 1010 hPa SSE 5.6 km/h 8 km/h 70 % 0 mm
15:03 31.7 °C 25.5 °C 1009.7 hPa SE 1.8 km/h 5.6 km/h 70 % 0 mm
15:08 31.7 °C 25.3 °C 1010 hPa South 2.4 km/h 5.6 km/h 69 % 0 mm
15:13 31.7 °C 25.6 °C 1009.7 hPa SSE 2.1 km/h 6.4 km/h 70 % 0 mm
15:18 31.7 °C 25.8 °C 1009.7 hPa SSE 3.4 km/h 5.6 km/h 71 % 0 mm
15:24 31.8 °C 25.6 °C 1009.7 hPa South 3.7 km/h 9.3 km/h 70 % 0 mm
15:29 31.8 °C 25.7 °C 1009.4 hPa ESE 0.8 km/h 9.3 km/h 70 % 0 mm
15:34 31.9 °C 25.8 °C 1009.4 hPa South 5.3 km/h 11.3 km/h 70 % 0 mm
15:39 32 °C 26.1 °C 1009.4 hPa SSE 4.2 km/h 7.4 km/h 71 % 0 mm
15:44 32 °C 25.8 °C 1009 hPa SW 3.5 km/h 5.6 km/h 70 % 0 mm
15:49 32 °C 25.8 °C 1009 hPa SSE 9.3 km/h 18.5 km/h 70 % 0 mm
15:54 31.8 °C 25.7 °C 1009 hPa South 3.9 km/h 9.7 km/h 70 % 0 mm
15:59 31.8 °C 25.9 °C 1008.7 hPa SW 6 km/h 14.8 km/h 71 % 0 mm
16:04 31.9 °C 25.8 °C 1008.7 hPa South 5.1 km/h 11.1 km/h 70 % 0 mm
16:09 31.9 °C 25.8 °C 1008.7 hPa SW 5 km/h 9.3 km/h 70 % 0 mm
16:14 31.9 °C 25.7 °C 1008.7 hPa WSW 2.7 km/h 7.4 km/h 70 % 0 mm
16:19 31.7 °C 25.5 °C 1008.7 hPa SSW 2.1 km/h 7.4 km/h 70 % 0 mm
16:24 31.6 °C 25.7 °C 1008.7 hPa SSW 2.9 km/h 5.6 km/h 71 % 0 mm
16:29 31.3 °C 25.2 °C 1008.4 hPa SE 3.9 km/h 13 km/h 70 % 0 mm
16:34 31.1 °C 25.2 °C 1008.4 hPa SSW 3.4 km/h 6.4 km/h 71 % 0 mm
16:39 30.9 °C 25.5 °C 1008.4 hPa SSE 3.1 km/h 11.3 km/h 73 % 0 mm
16:44 30.9 °C 25.5 °C 1008.4 hPa SSW 3.7 km/h 9.3 km/h 73 % 0 mm
16:49 30.9 °C 25.5 °C 1008.4 hPa SSE 4.8 km/h 13 km/h 73 % 0 mm
16:54 30.7 °C 25.3 °C 1008.4 hPa SSE 6 km/h 9.3 km/h 73 % 0 mm
16:59 30.4 °C 25.3 °C 1008 hPa SSE 2.6 km/h 7.4 km/h 74 % 0 mm
17:04 30.3 °C 25.4 °C 1008 hPa SW 5.6 km/h 9.3 km/h 75 % 0 mm
17:09 30.3 °C 25.1 °C 1008 hPa SSW 3.2 km/h 9.7 km/h 74 % 0 mm
17:14 30.1 °C 25.2 °C 1008 hPa SE 8.2 km/h 13 km/h 75 % 0 mm
17:19 30.1 °C 25.1 °C 1008 hPa SSW 3.1 km/h 8 km/h 75 % 0 mm
17:24 30.1 °C 25.1 °C 1007.7 hPa South 5.8 km/h 9.7 km/h 75 % 0 mm
17:29 29.9 °C 25.1 °C 1007.7 hPa South 8.7 km/h 16.7 km/h 75 % 0 mm
17:34 29.9 °C 25.1 °C 1007.7 hPa South 6.1 km/h 11.1 km/h 75 % 0 mm
17:39 29.9 °C 24.7 °C 1007.7 hPa SSW 5.6 km/h 11.1 km/h 74 % 0 mm
17:44 29.9 °C 25 °C 1007.7 hPa SE 2.4 km/h 7.4 km/h 75 % 0 mm
17:50 29.8 °C 24.9 °C 1007.3 hPa SW 5.3 km/h 8 km/h 75 % 0 mm
17:55 29.7 °C 24.8 °C 1007.3 hPa SSW 1.9 km/h 7.4 km/h 75 % 0 mm
18:00 29.6 °C 24.7 °C 1007.3 hPa SSW 6 km/h 9.3 km/h 75 % 0 mm
18:05 29.5 °C 24.8 °C 1007.3 hPa SE 3.5 km/h 13 km/h 76 % 0 mm
18:10 29.4 °C 24.7 °C 1007 hPa West 3.9 km/h 13 km/h 76 % 0 mm
18:15 29.3 °C 24.6 °C 1007 hPa South 1.4 km/h 5.6 km/h 76 % 0 mm
18:20 29.1 °C 24.7 °C 1007 hPa South 6 km/h 8 km/h 77 % 0 mm
18:25 29 °C 24.6 °C 1007 hPa SSW 3.2 km/h 8 km/h 77 % 0 mm
18:30 28.8 °C 24.6 °C 1007 hPa SSW 2.3 km/h 5.6 km/h 78 % 0 mm
18:35 28.7 °C 24.5 °C 1007 hPa SSW 5.8 km/h 11.1 km/h 78 % 0 mm
18:40 28.6 °C 24.6 °C 1007 hPa SSW 4.8 km/h 9.7 km/h 79 % 0 mm
18:45 28.4 °C 24.4 °C 1007 hPa SSE 3.4 km/h 8 km/h 79 % 0 mm
18:50 28.3 °C 24.3 °C 1007 hPa SSW 2.6 km/h 5.6 km/h 79 % 0 mm
18:55 28.2 °C 24.4 °C 1007 hPa SSW 3.9 km/h 5.6 km/h 80 % 0 mm
19:00 28.1 °C 24.3 °C 1007 hPa SSW 4.3 km/h 9.3 km/h 80 % 0 mm
19:05 28 °C 24.2 °C 1007 hPa South 2.9 km/h 9.3 km/h 80 % 0 mm
19:10 27.9 °C 24.4 °C 1007 hPa SSW 7.4 km/h 11.3 km/h 81 % 0 mm
19:16 27.9 °C 24.3 °C 1007 hPa SSW 4.8 km/h 9.7 km/h 81 % 0 mm
19:21 27.8 °C 24.3 °C 1007 hPa SSW 4.8 km/h 14.5 km/h 81 % 0 mm
19:26 27.7 °C 24.2 °C 1007 hPa SSW 4.3 km/h 9.7 km/h 81 % 0 mm
19:31 27.7 °C 24.1 °C 1007 hPa South 3.2 km/h 9.7 km/h 81 % 0 mm
19:36 27.6 °C 24.2 °C 1007 hPa SSW 8 km/h 19.3 km/h 82 % 0 mm
19:41 27.4 °C 24.1 °C 1007 hPa SSW 4.7 km/h 11.1 km/h 82 % 0 mm
19:46 27.4 °C 24.1 °C 1007 hPa South 5.8 km/h 9.3 km/h 82 % 0 mm
19:51 27.3 °C 24 °C 1007 hPa South 5.3 km/h 11.1 km/h 82 % 0 mm
19:56 27.2 °C 23.9 °C 1007 hPa SSW 5.8 km/h 13 km/h 82 % 0 mm
20:01 27.1 °C 24 °C 1006.7 hPa South 4.5 km/h 11.1 km/h 83 % 0 mm
20:06 27.1 °C 23.9 °C 1006.7 hPa WSW 3.7 km/h 9.3 km/h 83 % 0 mm
20:11 26.9 °C 23.8 °C 1006.7 hPa SSW 2.4 km/h 5.6 km/h 83 % 0 mm
20:16 26.9 °C 23.8 °C 1006.7 hPa SSW 3.5 km/h 7.4 km/h 83 % 0 mm
20:21 26.8 °C 23.7 °C 1006.7 hPa SE 4.2 km/h 11.1 km/h 83 % 0 mm
20:26 26.7 °C 23.8 °C 1006.7 hPa South 3.1 km/h 9.3 km/h 84 % 0 mm
20:31 26.7 °C 23.7 °C 1006.7 hPa SSW 3.5 km/h 6.4 km/h 84 % 0 mm
20:36 26.6 °C 23.7 °C 1006.7 hPa SE 2.4 km/h 8 km/h 84 % 0 mm
20:41 26.6 °C 23.6 °C 1006.3 hPa SSE 1.6 km/h 5.6 km/h 84 % 0 mm
20:46 26.5 °C 23.6 °C 1006.3 hPa SSW 0.5 km/h 5.6 km/h 84 % 0 mm
20:51 26.4 °C 23.5 °C 1006.7 hPa SE 2.4 km/h 6.4 km/h 84 % 0 mm
20:56 26.4 °C 23.4 °C 1006.3 hPa SSW 5.1 km/h 9.3 km/h 84 % 0 mm
21:01 26.3 °C 23.4 °C 1006 hPa SSW 4.8 km/h 8 km/h 84 % 0 mm
21:06 26.3 °C 23.3 °C 1006 hPa ESE 2.1 km/h 5.6 km/h 84 % 0 mm
21:11 26.2 °C 23.3 °C 1006 hPa NW 2.4 km/h 6.4 km/h 84 % 0 mm
21:16 26.2 °C 23.3 °C 1006 hPa SSW 5 km/h 14.8 km/h 84 % 0 mm
21:21 26.2 °C 23.2 °C 1005.6 hPa SSW 4.5 km/h 8 km/h 84 % 0 mm
21:26 26.1 °C 23.4 °C 1005.6 hPa SSW 2.9 km/h 7.4 km/h 85 % 0 mm
21:31 26.1 °C 23.3 °C 1005.6 hPa South 1.6 km/h 7.4 km/h 85 % 0 mm
21:36 26.1 °C 23.3 °C 1006 hPa South 4.7 km/h 6.4 km/h 85 % 0 mm
21:41 26.1 °C 23.3 °C 1006 hPa SSW 3.4 km/h 13 km/h 85 % 0 mm
21:46 26 °C 23.3 °C 1006 hPa SSW 5.5 km/h 11.1 km/h 85 % 0 mm
21:52 25.9 °C 23.4 °C 1006 hPa South 2.7 km/h 5.6 km/h 86 % 0 mm
21:57 25.9 °C 23.4 °C 1006 hPa SSW 5.5 km/h 7.4 km/h 86 % 0 mm
22:02 25.9 °C 23.4 °C 1006 hPa SSW 6.8 km/h 11.1 km/h 86 % 0 mm
22:07 25.9 °C 23.4 °C 1005.6 hPa South 4.2 km/h 7.4 km/h 86 % 0 mm
22:12 25.9 °C 23.4 °C 1005.6 hPa SSW 4.7 km/h 11.1 km/h 86 % 0 mm
22:17 25.9 °C 23.4 °C 1005.6 hPa SSW 7.4 km/h 12.9 km/h 86 % 0 mm
22:22 25.9 °C 23.4 °C 1005.3 hPa SSW 2.7 km/h 7.4 km/h 86 % 0 mm
22:27 25.9 °C 23.4 °C 1005.3 hPa SSW 5.6 km/h 11.1 km/h 86 % 0 mm
22:32 25.9 °C 23.4 °C 1005.3 hPa South 2.9 km/h 6.4 km/h 86 % 0 mm
22:37 25.9 °C 23.6 °C 1005.3 hPa South 1.8 km/h 5.6 km/h 87 % 0 mm
22:42 25.9 °C 23.6 °C 1005.3 hPa South 6 km/h 14.8 km/h 87 % 0 mm
22:47 25.9 °C 23.6 °C 1005.3 hPa SW 3.4 km/h 5.6 km/h 87 % 0 mm
22:52 25.8 °C 23.7 °C 1005.3 hPa SSE 3.4 km/h 7.4 km/h 88 % 0 mm
22:57 25.9 °C 23.7 °C 1005.6 hPa South 7.1 km/h 16.7 km/h 88 % 0 mm
23:02 25.8 °C 23.7 °C 1005.6 hPa South 4.5 km/h 5.6 km/h 88 % 0 mm
23:07 25.8 °C 23.7 °C 1005.6 hPa South 5.1 km/h 13 km/h 88 % 0 mm
23:12 25.8 °C 23.7 °C 1005.6 hPa SSW 6.8 km/h 11.3 km/h 88 % 0 mm
23:17 25.8 °C 23.7 °C 1005.6 hPa SSW 9.2 km/h 16.7 km/h 88 % 0 mm
23:22 25.8 °C 23.7 °C 1005.6 hPa South 3.2 km/h 24.1 km/h 88 % 0 mm
23:28 25.8 °C 23.9 °C 1005.6 hPa WSW 7.9 km/h 14.5 km/h 89 % 0 mm
23:33 25.8 °C 23.8 °C 1006 hPa South 4.2 km/h 18.5 km/h 89 % 0.25 mm
23:38 25.7 °C 23.9 °C 1006 hPa SW 9 km/h 12.9 km/h 90 % 0.76 mm
23:44 25.6 °C 23.8 °C 1006 hPa SSW 2.6 km/h 9.3 km/h 90 % 1.02 mm
23:49 25.5 °C 23.7 °C 1006.3 hPa WSW 8.2 km/h 14.5 km/h 90 % 1.02 mm
23:54 25.4 °C 23.8 °C 1006.7 hPa SSE 8.2 km/h 11.3 km/h 91 % 1.27 mm
23:59 25.2 °C 23.4 °C 1006.7 hPa SSW 9 km/h 16.7 km/h 90 % 1.52 mm
Crab Meadow Weather
Compliments of Weather Underground - 3 mb

Script developed by  Jim McMurry - jmcmurry@mwt.net Adapted for the template by  Wim van der Kuil - Leuven-Template.eu

Hurricanes: Hurricanes are classified into five categories, based on their wind speeds and potential to cause damage. * Category One -- Winds 74-95 miles per hour * Category Two -- Winds 96-110 miles per hour * Category Three -- Winds 111-130 miles per hour * Category Four -- Winds 131-155 miles per hour * Category Five -- Winds greater than 155 miles per hour.